Hauptseite
METAR-TAF:

METAR-TAF

Flughäfen :

Finkenwerder, Deutschland

Flugplatz Hamburg-Finkenwerder

Breite: 53-32N, Länge: 009-50E, Höhe: 5 m

Beobachtung

Neuester Wetterbericht von vor 39 Minuten, um 13:20 UTC
Wind 11 kt aus Ost, variierte zwischen Ost/Nordost und Südost
Temperatur 2°C
Luftfeuchtigkeit 44%
Luftdruck 1032 hPa
Sichtweite 10 km oder mehr
Aufgelockert bewölkt in der Höhe von 4800 ft

METAR: EDHI 241320Z 09011KT 060V130 9999 SCT048 02/M09 Q1032

Zeit: 14:59 (13:59 UTC)

Prognose

Neuester Wetterbericht von vor 2 Stunden und 59 Minuten, um 11:00 UTC
Gültige Prognose vom 24 um 12 UTC bis 24 um 21 UTC
Wind 10 kt aus Ost
Sichtweite 10 km oder mehr
Aufgelockert bewölkt in der Höhe von 3000 ft
Zeitweise
vom 24 um 12 UTC bis 24 um 17 UTC
Wind 15 kt aus Ost, Böen bis zu 25 kt

TAF: EDHI 241100Z 2412/2421 08010KT 9999 SCT030 TEMPO 2412/2417 08015G25KT

Wetterbeobachtungen und Prognosen von mehr als 4000 Flughäfen (METAR und TAF Bericht).

Die verfügbaren Stationen werden durch gelbe und rote Markierungen auf der Karte dargestellt.

Führen Sie die Maus auf sie, um den Namen der Station zu sehen.

Darauf klicken, um die Beobachtung von Wetterbeobachtungen und Prognosen zu sehen.

Um die Karte zu ändern : klicken Sie auf den grünen Tasten mit einem schwarzen Kreuz Zum Vergrößern, auf den grünen Button mit einem Gedankenstrich zu verkleinern, oder auf die grünen Pfeile für benachbarte Karten.


METAR-TAF: